Terminal Aerodrome Forecast
Issued by NWS Bismarck, ND

Home | Current Version | Previous Version | Graphics & Text | Print | Product List | Glossary On
Versions: 1 2 3 4 5 6 7 8 9 10 11 12 13 14 15 16 17 18 19 20 21 22 23
000
FTUS43 KBIS 201134
TAFBIS
TAF
KBIS 201134Z 2012/2112 09006KT P6SM FEW005 SCT120 BKN200
      TEMPO 2012/2015 BKN005
     FM202000 18010G17KT P6SM FEW060 SCT200
     FM210500 02006KT P6SM FEW080 SCT200=

USA.gov is the U.S. government's official web portal to all federal, state and local government web resources and services.